createdAt,value
2022-11-13T00:00:53.642Z,44.10
2022-11-13T00:03:41.812Z,51.47
2022-11-13T00:06:27.946Z,50.37
2022-11-13T00:09:14.442Z,46.73
2022-11-13T00:12:00.419Z,54.43
2022-11-13T00:14:46.805Z,45.73
2022-11-13T00:17:33.528Z,41.40
2022-11-13T00:20:21.440Z,42.13
2022-11-13T00:23:07.857Z,40.27
2022-11-13T00:25:54.605Z,42.27
2022-11-13T00:28:41.337Z,49.70
2022-11-13T00:31:28.669Z,42.80
2022-11-13T00:34:41.045Z,43.57
2022-11-13T00:37:23.278Z,45.37
2022-11-13T00:40:10.189Z,44.17
2022-11-13T00:42:57.095Z,45.33
2022-11-13T00:45:43.443Z,40.87
2022-11-13T00:48:30.235Z,42.17
2022-11-13T00:51:17.097Z,42.30
2022-11-13T00:54:05.142Z,48.30
2022-11-13T00:56:53.665Z,45.17
2022-11-13T00:59:40.580Z,43.83
2022-11-13T01:02:26.757Z,42.17
2022-11-13T01:05:13.568Z,49.23
2022-11-13T01:07:59.607Z,44.53
2022-11-13T01:10:53.369Z,51.00
2022-11-13T01:13:41.044Z,48.87
2022-11-13T01:16:29.602Z,41.93
2022-11-13T01:19:16.117Z,41.83
2022-11-13T01:22:03.304Z,44.63
2022-11-13T01:24:49.280Z,44.43
2022-11-13T01:27:38.190Z,43.30
2022-11-13T01:30:24.931Z,53.03
2022-11-13T01:33:13.007Z,48.70
2022-11-13T01:36:03.141Z,44.70
2022-11-13T01:38:50.240Z,42.47
2022-11-13T01:41:36.587Z,48.20
2022-11-13T01:44:24.800Z,43.97
2022-11-13T01:47:11.242Z,45.73
2022-11-13T01:49:59.816Z,41.00
2022-11-13T01:52:45.904Z,39.50
2022-11-13T01:55:32.052Z,41.83
2022-11-13T01:58:18.348Z,39.37
2022-11-13T02:01:06.624Z,42.37
2022-11-13T02:03:52.764Z,36.73
2022-11-13T02:06:42.311Z,35.67
2022-11-13T02:09:29.974Z,38.50
2022-11-13T02:12:17.585Z,37.33
2022-11-13T02:15:05.993Z,41.47
2022-11-13T02:17:55.882Z,37.07
2022-11-13T02:20:44.846Z,39.40
2022-11-13T02:23:35.725Z,40.73
2022-11-13T02:26:24.903Z,34.10
2022-11-13T02:29:12.010Z,34.73
2022-11-13T02:31:57.998Z,36.37
2022-11-13T02:34:44.517Z,32.63
2022-11-13T02:37:31.332Z,33.13
2022-11-13T02:40:18.530Z,35.23
2022-11-13T02:43:06.173Z,29.43
2022-11-13T02:45:53.291Z,30.20
2022-11-13T02:48:39.490Z,30.53
2022-11-13T02:51:26.530Z,32.90
2022-11-13T02:54:16.662Z,38.83
2022-11-13T02:57:03.566Z,30.53
2022-11-13T02:59:51.512Z,27.10
2022-11-13T03:02:38.314Z,33.17
2022-11-13T03:05:24.949Z,31.90
2022-11-13T03:08:11.646Z,43.00
2022-11-13T03:10:58.252Z,33.50
2022-11-13T03:13:44.520Z,29.53
2022-11-13T03:16:32.431Z,35.47
2022-11-13T03:19:18.671Z,26.93
2022-11-13T03:22:05.754Z,28.43
2022-11-13T03:24:52.289Z,28.93
2022-11-13T03:27:39.612Z,29.07
2022-11-13T03:30:26.049Z,24.70
2022-11-13T03:33:13.851Z,31.80
2022-11-13T03:35:59.974Z,26.43
2022-11-13T03:38:46.576Z,23.97
2022-11-13T03:41:32.602Z,26.03
2022-11-13T03:44:19.118Z,25.33
2022-11-13T03:47:05.913Z,26.23
2022-11-13T03:49:53.587Z,23.07
2022-11-13T03:52:40.582Z,25.00
2022-11-13T03:55:27.088Z,25.60
2022-11-13T03:58:13.646Z,27.07
2022-11-13T04:00:59.676Z,26.40
2022-11-13T04:03:47.120Z,28.40
2022-11-13T04:06:34.665Z,24.43
2022-11-13T04:09:21.360Z,27.60
2022-11-13T04:12:07.614Z,34.60
2022-11-13T04:14:54.343Z,26.30
2022-11-13T04:17:40.525Z,26.53
2022-11-13T04:20:31.109Z,30.77
2022-11-13T04:23:19.097Z,29.43
2022-11-13T04:26:05.974Z,28.60
2022-11-13T04:28:52.023Z,26.10
2022-11-13T04:31:38.295Z,28.50
2022-11-13T04:34:24.648Z,27.60
2022-11-13T04:37:11.648Z,29.50
2022-11-13T04:39:59.289Z,25.57
2022-11-13T04:42:51.249Z,30.97
2022-11-13T04:45:37.584Z,29.80
2022-11-13T04:48:24.390Z,32.47
2022-11-13T04:51:10.661Z,26.67
2022-11-13T04:53:57.308Z,24.50
2022-11-13T04:56:44.885Z,30.00
2022-11-13T04:59:31.486Z,24.37
2022-11-13T05:02:17.814Z,27.20
2022-11-13T05:05:05.526Z,26.67
2022-11-13T05:07:51.835Z,25.80
2022-11-13T05:10:38.801Z,27.00
2022-11-13T05:13:26.619Z,28.23
2022-11-13T05:16:14.652Z,26.57
2022-11-13T05:19:00.873Z,31.30
2022-11-13T05:21:47.151Z,26.27
2022-11-13T05:24:33.451Z,26.90
2022-11-13T05:27:20.114Z,27.47
2022-11-13T05:30:09.213Z,27.13
2022-11-13T05:32:55.747Z,27.83
2022-11-13T05:35:42.110Z,26.63
2022-11-13T05:38:30.077Z,26.23
2022-11-13T05:41:17.666Z,25.07
2022-11-13T05:44:04.711Z,24.87
2022-11-13T05:46:52.520Z,28.33
2022-11-13T05:49:39.580Z,26.93
2022-11-13T05:52:26.187Z,29.57
2022-11-13T05:55:12.918Z,26.53
2022-11-13T05:57:59.446Z,25.97
2022-11-13T06:00:46.557Z,28.13
2022-11-13T06:03:35.033Z,29.43
2022-11-13T06:06:22.768Z,35.47
2022-11-13T06:09:09.146Z,27.70
2022-11-13T06:11:55.816Z,29.70
2022-11-13T06:14:42.104Z,28.40
2022-11-13T06:17:29.028Z,38.13
2022-11-13T06:20:16.998Z,33.27
2022-11-13T06:23:04.661Z,37.63
2022-11-13T06:25:51.266Z,33.43
2022-11-13T06:28:38.135Z,38.20
2022-11-13T06:31:25.735Z,33.70
2022-11-13T06:34:12.220Z,35.83
2022-11-13T06:37:01.923Z,38.07
2022-11-13T06:39:48.971Z,37.47
2022-11-13T06:42:36.020Z,39.07
2022-11-13T06:45:22.224Z,46.47
2022-11-13T06:48:08.748Z,40.23
2022-11-13T06:50:55.122Z,37.67
2022-11-13T06:53:43.681Z,50.43
2022-11-13T06:56:29.729Z,42.07
2022-11-13T06:59:16.258Z,42.00
2022-11-13T07:02:02.326Z,35.83
2022-11-13T07:04:48.915Z,38.30
2022-11-13T07:07:35.401Z,36.93
2022-11-13T07:10:23.372Z,39.47
2022-11-13T07:13:09.993Z,39.00
2022-11-13T07:16:09.290Z,35.13
2022-11-13T07:19:02.324Z,35.77
2022-11-13T07:21:49.084Z,34.77
2022-11-13T07:24:35.392Z,34.30
2022-11-13T07:27:24.058Z,34.77
2022-11-13T07:30:10.769Z,33.20
2022-11-13T07:32:57.644Z,32.50
2022-11-13T07:35:44.301Z,34.17
2022-11-13T07:38:31.145Z,29.97
2022-11-13T07:41:18.044Z,35.07
2022-11-13T07:44:09.118Z,35.50
2022-11-13T07:46:56.340Z,34.43
2022-11-13T07:49:43.108Z,32.93
2022-11-13T07:52:29.643Z,36.83
2022-11-13T07:55:16.229Z,34.00
2022-11-13T07:58:03.029Z,37.67
2022-11-13T08:00:50.803Z,33.53
2022-11-13T08:03:37.633Z,33.40
2022-11-13T08:06:27.714Z,35.53
2022-11-13T08:09:15.183Z,37.90
2022-11-13T08:12:01.591Z,38.90
2022-11-13T08:14:47.839Z,36.57
2022-11-13T08:17:36.295Z,36.30
2022-11-13T08:20:22.972Z,40.63
2022-11-13T08:23:10.222Z,41.00
2022-11-13T08:25:56.483Z,44.60
2022-11-13T08:28:44.199Z,38.00
2022-11-13T08:31:30.164Z,43.33
2022-11-13T08:34:19.836Z,36.70
2022-11-13T08:37:06.081Z,37.27
2022-11-13T08:39:52.690Z,37.40
2022-11-13T08:42:38.986Z,34.90
2022-11-13T08:45:25.628Z,41.63
2022-11-13T08:48:11.714Z,35.70
2022-11-13T08:51:00.099Z,35.53
2022-11-13T08:53:46.473Z,43.63
2022-11-13T08:56:32.913Z,35.13
2022-11-13T08:59:19.216Z,37.50
2022-11-13T09:02:05.648Z,38.50
2022-11-13T09:04:52.076Z,34.10
2022-11-13T09:07:40.179Z,34.83
2022-11-13T09:10:27.304Z,37.07
2022-11-13T09:13:14.461Z,34.33
2022-11-13T09:16:00.805Z,35.20
2022-11-13T09:18:50.102Z,34.30
2022-11-13T09:21:36.155Z,33.80
2022-11-13T09:24:23.817Z,32.07
2022-11-13T09:27:09.862Z,33.90
2022-11-13T09:29:56.682Z,30.63
2022-11-13T09:32:42.780Z,29.57
2022-11-13T09:35:35.345Z,30.10
2022-11-13T09:38:22.139Z,32.43
2022-11-13T09:41:11.457Z,29.77
2022-11-13T09:44:01.620Z,29.03
2022-11-13T09:46:50.730Z,35.07
2022-11-13T09:49:38.389Z,26.10
2022-11-13T09:52:31.362Z,28.97
2022-11-13T09:55:18.644Z,29.47
2022-11-13T09:58:08.792Z,27.27
2022-11-13T10:00:55.270Z,23.83
2022-11-13T10:04:03.467Z,32.77
2022-11-13T10:06:57.925Z,26.23
2022-11-13T10:09:50.955Z,26.17
2022-11-13T10:12:37.743Z,25.70
2022-11-13T10:15:26.598Z,24.63
2022-11-13T10:18:14.713Z,25.67
2022-11-13T10:21:09.716Z,26.70
2022-11-13T10:23:57.396Z,27.70
2022-11-13T10:26:44.503Z,24.10
2022-11-13T10:29:31.083Z,25.57
2022-11-13T10:32:21.406Z,25.40
2022-11-13T10:35:18.712Z,31.93
2022-11-13T10:38:08.547Z,23.30
2022-11-13T10:41:05.600Z,27.33
2022-11-13T10:43:52.887Z,24.30
2022-11-13T10:46:39.093Z,20.20
2022-11-13T10:49:29.252Z,24.73
2022-11-13T10:52:18.603Z,21.30
2022-11-13T10:55:06.319Z,24.70
2022-11-13T10:57:56.705Z,22.07
2022-11-13T11:00:45.069Z,26.10
2022-11-13T11:03:31.194Z,23.60
2022-11-13T11:06:19.731Z,21.13
2022-11-13T11:09:07.272Z,23.37
2022-11-13T11:12:19.205Z,25.60
2022-11-13T11:15:11.390Z,23.37
2022-11-13T11:18:00.830Z,20.43
2022-11-13T11:20:48.863Z,23.10
2022-11-13T11:23:40.981Z,19.90
2022-11-13T11:26:30.111Z,24.97
2022-11-13T11:29:20.209Z,20.40
2022-11-13T11:32:12.107Z,23.63
2022-11-13T11:35:02.484Z,23.70
2022-11-13T11:37:52.913Z,21.03
2022-11-13T11:40:42.013Z,23.50
2022-11-13T11:43:32.584Z,23.67
2022-11-13T11:46:21.211Z,23.00
2022-11-13T11:49:07.221Z,20.87
2022-11-13T11:51:58.610Z,26.43
2022-11-13T11:54:51.621Z,24.70
2022-11-13T11:57:46.120Z,24.97
2022-11-13T12:00:32.855Z,22.50
2022-11-13T12:03:35.513Z,27.50
2022-11-13T12:06:27.578Z,27.77
2022-11-13T12:09:19.593Z,24.50
2022-11-13T12:12:11.133Z,26.00
2022-11-13T12:15:04.040Z,24.93
2022-11-13T12:17:56.986Z,34.37
2022-11-13T12:20:45.853Z,25.87
2022-11-13T12:23:36.959Z,30.10
2022-11-13T12:26:27.282Z,30.30
2022-11-13T12:29:22.079Z,32.40
2022-11-13T12:32:20.636Z,28.60
2022-11-13T12:35:10.822Z,29.20
2022-11-13T12:37:59.585Z,29.43
2022-11-13T12:40:50.509Z,29.53
2022-11-13T12:43:48.294Z,31.97
2022-11-13T12:46:37.134Z,29.57
2022-11-13T12:49:29.881Z,26.57
2022-11-13T12:52:22.734Z,28.10
2022-11-13T12:55:24.957Z,32.97
2022-11-13T12:58:12.607Z,32.03
2022-11-13T13:01:02.025Z,35.50
2022-11-13T13:04:00.131Z,32.53
2022-11-13T13:06:52.885Z,29.53
2022-11-13T13:09:44.607Z,30.20
2022-11-13T13:12:40.640Z,28.03
2022-11-13T13:15:31.302Z,26.00
2022-11-13T13:18:27.303Z,29.17
2022-11-13T13:21:15.132Z,25.90
2022-11-13T13:24:09.742Z,28.40
2022-11-13T13:26:56.188Z,30.80
2022-11-13T13:29:43.391Z,29.87
2022-11-13T13:32:35.472Z,27.00
2022-11-13T13:35:25.207Z,28.40
2022-11-13T13:38:17.901Z,29.17
2022-11-13T13:41:17.858Z,25.50
2022-11-13T13:44:19.244Z,24.27
2022-11-13T13:47:11.635Z,25.20
2022-11-13T13:49:58.210Z,27.80
2022-11-13T13:52:45.594Z,27.00
2022-11-13T13:55:33.801Z,28.70
2022-11-13T13:58:24.396Z,29.90
2022-11-13T14:01:19.422Z,28.43
2022-11-13T14:04:07.500Z,28.50
2022-11-13T14:06:54.493Z,27.37
2022-11-13T14:09:44.443Z,30.37
2022-11-13T14:12:31.293Z,29.87
2022-11-13T14:15:22.797Z,27.97
2022-11-13T14:18:10.386Z,25.97
2022-11-13T14:21:00.137Z,28.27
2022-11-13T14:23:50.062Z,25.47
2022-11-13T14:26:37.240Z,30.90
2022-11-13T14:29:25.410Z,27.40
2022-11-13T14:32:14.674Z,27.30
2022-11-13T14:35:01.591Z,30.30
2022-11-13T14:37:49.685Z,33.60
2022-11-13T14:40:37.507Z,31.43
2022-11-13T14:43:27.803Z,28.57
2022-11-13T14:46:26.443Z,40.33
2022-11-13T14:49:16.245Z,30.60
2022-11-13T14:52:03.070Z,26.57
2022-11-13T14:55:16.140Z,31.33
2022-11-13T14:57:56.180Z,31.60
2022-11-13T15:00:42.855Z,31.77
2022-11-13T15:03:29.719Z,28.23
2022-11-13T15:06:19.616Z,29.37
2022-11-13T15:09:07.380Z,33.47
2022-11-13T15:11:54.854Z,29.90
2022-11-13T15:14:42.391Z,31.83
2022-11-13T15:17:28.781Z,29.23
2022-11-13T15:20:16.361Z,27.20
2022-11-13T15:23:04.762Z,28.70
2022-11-13T15:25:50.962Z,28.60
2022-11-13T15:28:37.875Z,32.97
2022-11-13T15:31:25.482Z,29.07
2022-11-13T15:34:12.472Z,36.30
2022-11-13T15:36:58.779Z,37.73
2022-11-13T15:39:48.413Z,33.97
2022-11-13T15:42:36.157Z,40.93
2022-11-13T15:45:22.883Z,33.87
2022-11-13T15:48:12.937Z,34.07
2022-11-13T15:50:59.834Z,33.80
2022-11-13T15:53:50.689Z,34.57
2022-11-13T15:56:39.986Z,36.27
2022-11-13T15:59:26.894Z,37.43
2022-11-13T16:02:13.928Z,35.33
2022-11-13T16:05:00.265Z,37.13
2022-11-13T16:07:47.345Z,38.73
2022-11-13T16:10:33.461Z,37.70
2022-11-13T16:13:21.410Z,36.97
2022-11-13T16:16:09.506Z,35.73
2022-11-13T16:19:00.234Z,33.20
2022-11-13T16:21:47.340Z,38.67
2022-11-13T16:24:34.913Z,39.20
2022-11-13T16:27:26.042Z,40.20
2022-11-13T16:30:20.490Z,39.20
2022-11-13T16:33:09.115Z,36.17
2022-11-13T16:35:56.165Z,41.70
2022-11-13T16:38:44.227Z,41.37
2022-11-13T16:41:31.931Z,39.47
2022-11-13T16:44:18.432Z,39.87
2022-11-13T16:47:07.334Z,42.10
2022-11-13T16:49:54.229Z,39.73
2022-11-13T16:52:41.169Z,47.60
2022-11-13T16:55:27.678Z,45.00
2022-11-13T16:58:14.508Z,39.90
2022-11-13T17:04:25.922Z,44.40
2022-11-13T17:11:06.329Z,49.80
2022-11-13T17:13:53.693Z,46.10
2022-11-13T17:16:40.000Z,49.53
2022-11-13T17:19:27.845Z,46.43
2022-11-13T17:22:17.115Z,46.30
2022-11-13T17:25:03.520Z,51.33
2022-11-13T17:27:50.413Z,51.80
2022-11-13T17:30:36.529Z,49.33
2022-11-13T17:33:23.044Z,54.03
2022-11-13T17:36:11.443Z,47.07
2022-11-13T17:38:58.813Z,51.60
2022-11-13T17:41:44.957Z,58.23
2022-11-13T17:44:31.453Z,55.30
2022-11-13T17:47:17.871Z,55.07
2022-11-13T17:50:07.580Z,51.80
2022-11-13T17:52:55.726Z,51.77
2022-11-13T17:55:42.141Z,52.27
2022-11-13T17:58:28.972Z,52.17
2022-11-13T18:01:17.201Z,57.20
2022-11-13T18:04:04.276Z,52.40
2022-11-13T18:06:51.178Z,51.17
2022-11-13T18:09:38.817Z,49.70
2022-11-13T18:12:25.145Z,51.10
2022-11-13T18:15:11.641Z,50.87
2022-11-13T18:17:57.810Z,59.07
2022-11-13T18:20:43.940Z,54.40
2022-11-13T18:23:30.918Z,48.20
2022-11-13T18:26:20.001Z,52.20
2022-11-13T18:29:06.364Z,54.60
2022-11-13T18:31:52.717Z,52.87
2022-11-13T18:34:39.448Z,55.23
2022-11-13T18:37:25.485Z,57.70
2022-11-13T18:40:12.719Z,50.60
2022-11-13T18:43:01.002Z,58.10
2022-11-13T18:45:56.360Z,50.33
2022-11-13T18:48:44.817Z,51.20
2022-11-13T18:51:35.518Z,49.13
2022-11-13T18:54:21.850Z,50.70
2022-11-13T18:57:08.555Z,51.97
2022-11-13T18:59:56.146Z,49.00
2022-11-13T19:02:41.994Z,50.57
2022-11-13T19:05:28.460Z,52.77
2022-11-13T19:08:15.119Z,48.53
2022-11-13T19:11:03.994Z,50.03
2022-11-13T19:13:50.737Z,49.63
2022-11-13T19:16:39.033Z,53.97
2022-11-13T19:19:25.252Z,50.37
2022-11-13T19:22:11.363Z,50.57
2022-11-13T19:24:58.089Z,50.07
2022-11-13T19:27:44.398Z,48.50
2022-11-13T19:30:31.138Z,50.40
2022-11-13T19:33:18.711Z,49.10
2022-11-13T19:36:08.309Z,50.27
2022-11-13T19:38:54.770Z,48.13
2022-11-13T19:41:41.242Z,48.23
2022-11-13T19:44:27.955Z,51.33
2022-11-13T19:47:14.659Z,53.77
2022-11-13T19:50:02.344Z,52.77
2022-11-13T19:52:48.814Z,49.93
2022-11-13T19:55:35.698Z,46.33
2022-11-13T19:58:22.352Z,48.20
2022-11-13T20:01:09.367Z,47.00
2022-11-13T20:03:56.144Z,50.80
2022-11-13T20:06:43.673Z,47.63
2022-11-13T20:09:30.368Z,52.27
2022-11-13T20:12:17.240Z,51.90
2022-11-13T20:15:04.493Z,50.10
2022-11-13T20:17:50.737Z,50.67
2022-11-13T20:20:37.413Z,50.00
2022-11-13T20:23:25.861Z,50.50
2022-11-13T20:26:16.391Z,57.57
2022-11-13T20:29:02.811Z,54.60
2022-11-13T20:31:49.419Z,52.13
2022-11-13T20:34:35.679Z,52.87
2022-11-13T20:37:22.610Z,51.43
2022-11-13T20:40:11.188Z,64.30
2022-11-13T20:42:57.793Z,56.70
2022-11-13T20:45:44.145Z,57.90
2022-11-13T20:48:31.198Z,56.70
2022-11-13T20:51:19.352Z,59.03
2022-11-13T20:54:06.154Z,64.67
2022-11-13T20:56:53.722Z,59.70
2022-11-13T20:59:39.995Z,59.73
2022-11-13T21:02:26.946Z,63.47
2022-11-13T21:05:13.414Z,63.80
2022-11-13T21:07:59.632Z,66.53
2022-11-13T21:10:45.765Z,60.47
2022-11-13T21:13:34.111Z,68.33
2022-11-13T21:16:20.403Z,61.87
2022-11-13T21:19:07.856Z,61.60
2022-11-13T21:21:53.872Z,60.77
2022-11-13T21:24:40.677Z,58.00
2022-11-13T21:27:26.926Z,69.70
2022-11-13T21:30:15.158Z,66.00
2022-11-13T21:33:02.204Z,65.07
2022-11-13T21:35:48.971Z,73.47
2022-11-13T21:38:36.031Z,74.87
2022-11-13T21:41:24.839Z,71.37
2022-11-13T21:44:11.800Z,74.23
2022-11-13T21:47:00.005Z,72.33
2022-11-13T21:49:46.511Z,74.10
2022-11-13T21:52:33.235Z,76.37
2022-11-13T21:55:19.280Z,73.27
2022-11-13T21:58:05.585Z,68.50
2022-11-13T22:00:51.641Z,73.70
2022-11-13T22:03:39.612Z,75.97
2022-11-13T22:06:27.077Z,81.00
2022-11-13T22:09:14.889Z,86.50
2022-11-13T22:12:01.299Z,81.60
2022-11-13T22:14:48.020Z,84.83
2022-11-13T22:17:34.749Z,85.03
2022-11-13T22:20:23.126Z,86.37
2022-11-13T22:23:09.761Z,89.43
2022-11-13T22:26:00.036Z,87.90
2022-11-13T22:28:47.350Z,91.17
2022-11-13T22:31:34.081Z,102.60
2022-11-13T22:34:21.236Z,96.40
2022-11-13T22:37:09.575Z,92.87
2022-11-13T22:39:55.944Z,96.13
2022-11-13T22:42:43.000Z,102.17
2022-11-13T22:45:29.178Z,106.70
2022-11-13T22:48:15.885Z,104.13
2022-11-13T22:51:06.432Z,104.47
2022-11-13T22:53:55.378Z,103.30
2022-11-13T22:56:42.268Z,107.77
2022-11-13T22:59:29.071Z,96.30
2022-11-13T23:02:15.020Z,100.83
2022-11-13T23:05:01.744Z,103.27
2022-11-13T23:07:50.103Z,106.93
2022-11-13T23:10:38.158Z,106.83
2022-11-13T23:13:24.533Z,103.97
2022-11-13T23:16:11.940Z,106.40
2022-11-13T23:18:59.429Z,107.53
2022-11-13T23:21:46.761Z,109.33
2022-11-13T23:24:33.233Z,118.40
2022-11-13T23:27:21.273Z,106.10
2022-11-13T23:30:08.193Z,109.03
2022-11-13T23:32:55.516Z,104.10
2022-11-13T23:35:42.597Z,114.60
2022-11-13T23:38:29.158Z,114.73
2022-11-13T23:41:15.902Z,111.07
2022-11-13T23:44:11.038Z,109.57
2022-11-13T23:46:57.668Z,108.13
2022-11-13T23:49:44.491Z,110.53
2022-11-13T23:52:30.636Z,108.90
2022-11-13T23:55:17.822Z,116.93
2022-11-13T23:58:04.970Z,116.13
